sensor_id;sensor_type;location;lat;lon;timestamp;P1;durP1;ratioP1;P2;durP2;ratioP2
46675;SDS011;32412;51.478;5.694;2022-08-21T00:02:21;11.52;;;8.43;;
46675;SDS011;32412;51.478;5.694;2022-08-21T00:04:49;17.15;;;9.82;;
46675;SDS011;32412;51.478;5.694;2022-08-21T00:07:16;11.65;;;9.05;;
46675;SDS011;32412;51.478;5.694;2022-08-21T00:09:42;12.40;;;9.40;;
46675;SDS011;32412;51.478;5.694;2022-08-21T00:12:08;14.02;;;8.68;;
46675;SDS011;32412;51.478;5.694;2022-08-21T00:14:34;17.80;;;8.73;;
46675;SDS011;32412;51.478;5.694;2022-08-21T00:17:01;18.60;;;8.90;;
46675;SDS011;32412;51.478;5.694;2022-08-21T00:19:27;13.88;;;9.02;;
46675;SDS011;32412;51.478;5.694;2022-08-21T00:21:54;12.15;;;9.13;;
46675;SDS011;32412;51.478;5.694;2022-08-21T00:24:20;11.80;;;8.32;;
46675;SDS011;32412;51.478;5.694;2022-08-21T00:26:47;14.20;;;9.00;;
46675;SDS011;32412;51.478;5.694;2022-08-21T00:29:13;12.35;;;9.20;;
46675;SDS011;32412;51.478;5.694;2022-08-21T00:31:40;13.07;;;8.80;;
46675;SDS011;32412;51.478;5.694;2022-08-21T00:34:07;15.23;;;9.65;;
46675;SDS011;32412;51.478;5.694;2022-08-21T00:36:34;15.30;;;9.55;;
46675;SDS011;32412;51.478;5.694;2022-08-21T00:39:00;15.23;;;9.00;;
46675;SDS011;32412;51.478;5.694;2022-08-21T00:41:26;14.77;;;9.70;;
46675;SDS011;32412;51.478;5.694;2022-08-21T00:43:52;11.90;;;8.52;;
46675;SDS011;32412;51.478;5.694;2022-08-21T00:46:18;15.95;;;9.05;;
46675;SDS011;32412;51.478;5.694;2022-08-21T00:48:44;12.98;;;8.88;;
46675;SDS011;32412;51.478;5.694;2022-08-21T00:51:12;15.68;;;9.55;;
46675;SDS011;32412;51.478;5.694;2022-08-21T00:53:47;14.60;;;9.05;;
46675;SDS011;32412;51.478;5.694;2022-08-21T00:56:17;13.77;;;9.93;;
46675;SDS011;32412;51.478;5.694;2022-08-21T00:58:44;17.67;;;9.43;;
46675;SDS011;32412;51.478;5.694;2022-08-21T01:01:10;21.25;;;8.98;;
46675;SDS011;32412;51.478;5.694;2022-08-21T01:03:36;12.18;;;8.45;;
46675;SDS011;32412;51.478;5.694;2022-08-21T01:06:03;15.07;;;9.98;;
46675;SDS011;32412;51.478;5.694;2022-08-21T01:08:29;19.55;;;9.10;;
46675;SDS011;32412;51.478;5.694;2022-08-21T01:10:56;12.43;;;9.52;;
46675;SDS011;32412;51.478;5.694;2022-08-21T01:13:23;16.25;;;10.35;;
46675;SDS011;32412;51.478;5.694;2022-08-21T01:15:50;15.50;;;9.63;;
46675;SDS011;32412;51.478;5.694;2022-08-21T01:18:19;16.77;;;10.13;;
46675;SDS011;32412;51.478;5.694;2022-08-21T01:21:05;20.73;;;11.05;;
46675;SDS011;32412;51.478;5.694;2022-08-21T01:23:37;16.27;;;11.63;;
46675;SDS011;32412;51.478;5.694;2022-08-21T01:26:06;15.50;;;10.65;;
46675;SDS011;32412;51.478;5.694;2022-08-21T01:28:33;17.38;;;11.27;;
46675;SDS011;32412;51.478;5.694;2022-08-21T01:31:02;20.23;;;12.95;;
46675;SDS011;32412;51.478;5.694;2022-08-21T01:33:31;20.05;;;13.93;;
46675;SDS011;32412;51.478;5.694;2022-08-21T01:35:56;15.02;;;12.13;;
46675;SDS011;32412;51.478;5.694;2022-08-21T01:38:22;16.60;;;10.82;;
46675;SDS011;32412;51.478;5.694;2022-08-21T01:40:49;22.25;;;12.52;;
46675;SDS011;32412;51.478;5.694;2022-08-21T01:43:15;17.88;;;13.15;;
46675;SDS011;32412;51.478;5.694;2022-08-21T01:45:40;16.05;;;12.57;;
46675;SDS011;32412;51.478;5.694;2022-08-21T01:48:06;19.52;;;13.18;;
46675;SDS011;32412;51.478;5.694;2022-08-21T01:50:32;17.90;;;12.85;;
46675;SDS011;32412;51.478;5.694;2022-08-21T01:52:57;19.88;;;13.65;;
46675;SDS011;32412;51.478;5.694;2022-08-21T01:55:23;16.48;;;11.07;;
46675;SDS011;32412;51.478;5.694;2022-08-21T01:57:49;17.80;;;10.65;;
46675;SDS011;32412;51.478;5.694;2022-08-21T02:00:16;13.65;;;10.88;;
46675;SDS011;32412;51.478;5.694;2022-08-21T02:02:47;16.88;;;11.18;;
46675;SDS011;32412;51.478;5.694;2022-08-21T02:05:14;15.63;;;11.57;;
46675;SDS011;32412;51.478;5.694;2022-08-21T02:07:41;16.45;;;11.75;;
46675;SDS011;32412;51.478;5.694;2022-08-21T02:10:12;15.18;;;12.07;;
46675;SDS011;32412;51.478;5.694;2022-08-21T02:12:40;16.23;;;11.38;;
46675;SDS011;32412;51.478;5.694;2022-08-21T02:15:07;17.45;;;11.38;;
46675;SDS011;32412;51.478;5.694;2022-08-21T02:17:41;18.48;;;13.45;;
46675;SDS011;32412;51.478;5.694;2022-08-21T02:20:10;16.90;;;13.55;;
46675;SDS011;32412;51.478;5.694;2022-08-21T02:22:36;17.10;;;12.73;;
46675;SDS011;32412;51.478;5.694;2022-08-21T02:25:03;15.57;;;12.75;;
46675;SDS011;32412;51.478;5.694;2022-08-21T02:27:29;15.43;;;12.35;;
46675;SDS011;32412;51.478;5.694;2022-08-21T02:30:03;18.45;;;12.60;;
46675;SDS011;32412;51.478;5.694;2022-08-21T02:32:29;19.58;;;13.70;;
46675;SDS011;32412;51.478;5.694;2022-08-21T02:34:56;22.55;;;13.50;;
46675;SDS011;32412;51.478;5.694;2022-08-21T02:37:22;19.92;;;13.50;;
46675;SDS011;32412;51.478;5.694;2022-08-21T02:39:48;23.20;;;15.73;;
46675;SDS011;32412;51.478;5.694;2022-08-21T02:42:14;18.67;;;14.30;;
46675;SDS011;32412;51.478;5.694;2022-08-21T02:44:40;20.25;;;13.57;;
46675;SDS011;32412;51.478;5.694;2022-08-21T02:47:06;19.00;;;14.60;;
46675;SDS011;32412;51.478;5.694;2022-08-21T02:49:32;18.35;;;15.02;;
46675;SDS011;32412;51.478;5.694;2022-08-21T02:51:58;17.85;;;13.07;;
46675;SDS011;32412;51.478;5.694;2022-08-21T02:54:24;17.88;;;14.25;;
46675;SDS011;32412;51.478;5.694;2022-08-21T02:56:49;13.90;;;12.23;;
46675;SDS011;32412;51.478;5.694;2022-08-21T02:59:15;17.52;;;13.13;;
46675;SDS011;32412;51.478;5.694;2022-08-21T03:01:41;14.45;;;12.10;;
46675;SDS011;32412;51.478;5.694;2022-08-21T03:04:07;17.90;;;14.30;;
46675;SDS011;32412;51.478;5.694;2022-08-21T03:06:33;19.00;;;13.77;;
46675;SDS011;32412;51.478;5.694;2022-08-21T03:08:58;21.25;;;15.05;;
46675;SDS011;32412;51.478;5.694;2022-08-21T03:11:24;19.95;;;16.85;;
46675;SDS011;32412;51.478;5.694;2022-08-21T03:13:51;24.58;;;17.40;;
46675;SDS011;32412;51.478;5.694;2022-08-21T03:16:17;27.83;;;17.35;;
46675;SDS011;32412;51.478;5.694;2022-08-21T03:18:44;19.45;;;16.88;;
46675;SDS011;32412;51.478;5.694;2022-08-21T03:21:10;22.20;;;17.80;;
46675;SDS011;32412;51.478;5.694;2022-08-21T03:23:37;21.85;;;15.52;;
46675;SDS011;32412;51.478;5.694;2022-08-21T03:26:04;20.08;;;15.30;;
46675;SDS011;32412;51.478;5.694;2022-08-21T03:28:31;18.90;;;15.23;;
46675;SDS011;32412;51.478;5.694;2022-08-21T03:30:57;22.65;;;15.20;;
46675;SDS011;32412;51.478;5.694;2022-08-21T03:33:23;21.58;;;14.52;;
46675;SDS011;32412;51.478;5.694;2022-08-21T03:35:52;17.80;;;13.32;;
46675;SDS011;32412;51.478;5.694;2022-08-21T03:38:22;19.85;;;14.63;;
46675;SDS011;32412;51.478;5.694;2022-08-21T03:40:48;19.05;;;14.45;;
46675;SDS011;32412;51.478;5.694;2022-08-21T03:43:14;18.17;;;14.82;;
46675;SDS011;32412;51.478;5.694;2022-08-21T03:45:39;16.45;;;13.38;;
46675;SDS011;32412;51.478;5.694;2022-08-21T03:48:06;21.83;;;14.70;;
46675;SDS011;32412;51.478;5.694;2022-08-21T03:50:34;15.85;;;13.43;;
46675;SDS011;32412;51.478;5.694;2022-08-21T03:53:02;15.35;;;13.13;;
46675;SDS011;32412;51.478;5.694;2022-08-21T03:55:28;15.70;;;13.48;;
46675;SDS011;32412;51.478;5.694;2022-08-21T03:57:54;16.67;;;13.88;;
46675;SDS011;32412;51.478;5.694;2022-08-21T04:00:20;18.52;;;13.63;;
46675;SDS011;32412;51.478;5.694;2022-08-21T04:02:46;16.63;;;12.55;;
46675;SDS011;32412;51.478;5.694;2022-08-21T04:05:13;16.48;;;12.30;;
46675;SDS011;32412;51.478;5.694;2022-08-21T04:07:51;20.27;;;12.45;;
46675;SDS011;32412;51.478;5.694;2022-08-21T04:10:28;18.00;;;13.57;;
46675;SDS011;32412;51.478;5.694;2022-08-21T04:12:55;15.70;;;11.90;;
46675;SDS011;32412;51.478;5.694;2022-08-21T04:15:22;22.50;;;12.35;;
46675;SDS011;32412;51.478;5.694;2022-08-21T04:17:48;17.65;;;12.30;;
46675;SDS011;32412;51.478;5.694;2022-08-21T04:20:15;20.75;;;13.00;;
46675;SDS011;32412;51.478;5.694;2022-08-21T04:22:42;17.33;;;12.98;;
46675;SDS011;32412;51.478;5.694;2022-08-21T04:25:09;23.08;;;12.93;;
46675;SDS011;32412;51.478;5.694;2022-08-21T04:27:35;19.10;;;12.73;;
46675;SDS011;32412;51.478;5.694;2022-08-21T04:30:01;16.70;;;11.30;;
46675;SDS011;32412;51.478;5.694;2022-08-21T04:32:28;17.08;;;13.07;;
46675;SDS011;32412;51.478;5.694;2022-08-21T04:34:59;18.42;;;12.95;;
46675;SDS011;32412;51.478;5.694;2022-08-21T04:37:25;16.50;;;12.65;;
46675;SDS011;32412;51.478;5.694;2022-08-21T04:39:51;17.08;;;12.32;;
46675;SDS011;32412;51.478;5.694;2022-08-21T04:42:17;20.95;;;13.60;;
46675;SDS011;32412;51.478;5.694;2022-08-21T04:44:43;21.05;;;13.60;;
46675;SDS011;32412;51.478;5.694;2022-08-21T04:47:08;15.32;;;12.95;;
46675;SDS011;32412;51.478;5.694;2022-08-21T04:49:34;20.50;;;13.68;;
46675;SDS011;32412;51.478;5.694;2022-08-21T04:52:00;18.17;;;13.00;;
46675;SDS011;32412;51.478;5.694;2022-08-21T04:54:26;19.58;;;12.93;;
46675;SDS011;32412;51.478;5.694;2022-08-21T04:56:54;14.90;;;12.68;;
46675;SDS011;32412;51.478;5.694;2022-08-21T04:59:28;16.95;;;12.95;;
46675;SDS011;32412;51.478;5.694;2022-08-21T05:01:56;19.15;;;12.45;;
46675;SDS011;32412;51.478;5.694;2022-08-21T05:04:24;17.63;;;12.70;;
46675;SDS011;32412;51.478;5.694;2022-08-21T05:06:52;15.45;;;11.82;;
46675;SDS011;32412;51.478;5.694;2022-08-21T05:09:22;17.52;;;11.60;;
46675;SDS011;32412;51.478;5.694;2022-08-21T05:11:49;18.58;;;11.63;;
46675;SDS011;32412;51.478;5.694;2022-08-21T05:14:16;17.70;;;11.32;;
46675;SDS011;32412;51.478;5.694;2022-08-21T05:16:42;14.07;;;11.65;;
46675;SDS011;32412;51.478;5.694;2022-08-21T05:19:08;21.52;;;11.57;;
46675;SDS011;32412;51.478;5.694;2022-08-21T05:21:35;16.23;;;10.77;;
46675;SDS011;32412;51.478;5.694;2022-08-21T05:24:03;15.43;;;10.48;;
46675;SDS011;32412;51.478;5.694;2022-08-21T05:26:29;14.32;;;10.00;;
46675;SDS011;32412;51.478;5.694;2022-08-21T05:28:55;17.08;;;11.10;;
46675;SDS011;32412;51.478;5.694;2022-08-21T05:31:21;18.48;;;10.02;;
46675;SDS011;32412;51.478;5.694;2022-08-21T05:33:47;12.63;;;9.70;;
46675;SDS011;32412;51.478;5.694;2022-08-21T05:36:13;10.75;;;9.40;;
46675;SDS011;32412;51.478;5.694;2022-08-21T05:38:39;16.00;;;9.65;;
46675;SDS011;32412;51.478;5.694;2022-08-21T05:41:04;17.40;;;9.15;;
46675;SDS011;32412;51.478;5.694;2022-08-21T05:43:30;13.20;;;9.38;;
46675;SDS011;32412;51.478;5.694;2022-08-21T05:46:00;14.63;;;9.20;;
46675;SDS011;32412;51.478;5.694;2022-08-21T05:48:30;14.80;;;8.88;;
46675;SDS011;32412;51.478;5.694;2022-08-21T05:50:57;12.90;;;9.05;;
46675;SDS011;32412;51.478;5.694;2022-08-21T05:53:29;16.20;;;8.60;;
46675;SDS011;32412;51.478;5.694;2022-08-21T05:55:54;12.30;;;8.60;;
46675;SDS011;32412;51.478;5.694;2022-08-21T05:58:20;11.13;;;8.15;;
46675;SDS011;32412;51.478;5.694;2022-08-21T06:00:48;11.63;;;8.40;;
46675;SDS011;32412;51.478;5.694;2022-08-21T06:03:34;16.92;;;7.85;;
46675;SDS011;32412;51.478;5.694;2022-08-21T06:06:02;11.68;;;7.28;;
46675;SDS011;32412;51.478;5.694;2022-08-21T06:08:28;9.88;;;7.57;;
46675;SDS011;32412;51.478;5.694;2022-08-21T06:10:54;19.30;;;6.78;;
46675;SDS011;32412;51.478;5.694;2022-08-21T06:13:22;9.43;;;6.03;;
46675;SDS011;32412;51.478;5.694;2022-08-21T06:15:48;13.20;;;6.35;;
46675;SDS011;32412;51.478;5.694;2022-08-21T06:18:14;12.52;;;6.40;;
46675;SDS011;32412;51.478;5.694;2022-08-21T06:20:40;11.00;;;5.82;;
46675;SDS011;32412;51.478;5.694;2022-08-21T06:23:07;9.77;;;6.07;;
46675;SDS011;32412;51.478;5.694;2022-08-21T06:25:33;15.90;;;6.32;;
46675;SDS011;32412;51.478;5.694;2022-08-21T06:28:06;12.38;;;6.18;;
46675;SDS011;32412;51.478;5.694;2022-08-21T06:30:34;12.73;;;6.95;;
46675;SDS011;32412;51.478;5.694;2022-08-21T06:33:01;12.43;;;5.80;;
46675;SDS011;32412;51.478;5.694;2022-08-21T06:35:27;11.82;;;6.00;;
46675;SDS011;32412;51.478;5.694;2022-08-21T06:37:54;14.40;;;6.30;;
46675;SDS011;32412;51.478;5.694;2022-08-21T06:40:20;11.32;;;5.88;;
46675;SDS011;32412;51.478;5.694;2022-08-21T06:42:46;10.25;;;5.90;;
46675;SDS011;32412;51.478;5.694;2022-08-21T06:45:12;12.52;;;5.88;;
46675;SDS011;32412;51.478;5.694;2022-08-21T06:47:38;17.38;;;6.40;;
46675;SDS011;32412;51.478;5.694;2022-08-21T06:50:04;12.15;;;5.72;;
46675;SDS011;32412;51.478;5.694;2022-08-21T06:52:32;13.63;;;5.18;;
46675;SDS011;32412;51.478;5.694;2022-08-21T06:55:02;11.20;;;5.13;;
46675;SDS011;32412;51.478;5.694;2022-08-21T06:57:33;11.90;;;5.38;;
46675;SDS011;32412;51.478;5.694;2022-08-21T06:59:59;12.18;;;4.88;;
46675;SDS011;32412;51.478;5.694;2022-08-21T07:02:25;14.07;;;5.50;;
46675;SDS011;32412;51.478;5.694;2022-08-21T07:04:50;10.27;;;5.00;;
46675;SDS011;32412;51.478;5.694;2022-08-21T07:07:16;10.45;;;4.90;;
46675;SDS011;32412;51.478;5.694;2022-08-21T07:09:42;10.43;;;4.80;;
46675;SDS011;32412;51.478;5.694;2022-08-21T07:12:08;10.57;;;4.20;;
46675;SDS011;32412;51.478;5.694;2022-08-21T07:14:37;12.57;;;4.75;;
46675;SDS011;32412;51.478;5.694;2022-08-21T07:17:05;8.77;;;3.95;;
46675;SDS011;32412;51.478;5.694;2022-08-21T07:19:31;8.70;;;4.07;;
46675;SDS011;32412;51.478;5.694;2022-08-21T07:21:58;12.20;;;4.13;;
46675;SDS011;32412;51.478;5.694;2022-08-21T07:24:26;13.52;;;3.83;;
46675;SDS011;32412;51.478;5.694;2022-08-21T07:26:52;10.07;;;3.90;;
46675;SDS011;32412;51.478;5.694;2022-08-21T07:29:18;8.77;;;3.80;;
46675;SDS011;32412;51.478;5.694;2022-08-21T07:31:43;10.32;;;4.13;;
46675;SDS011;32412;51.478;5.694;2022-08-21T07:34:10;13.60;;;4.13;;
46675;SDS011;32412;51.478;5.694;2022-08-21T07:36:35;11.95;;;4.07;;
46675;SDS011;32412;51.478;5.694;2022-08-21T07:39:01;14.18;;;4.13;;
46675;SDS011;32412;51.478;5.694;2022-08-21T07:41:27;13.32;;;6.53;;
46675;SDS011;32412;51.478;5.694;2022-08-21T07:43:54;18.13;;;9.18;;
46675;SDS011;32412;51.478;5.694;2022-08-21T07:46:24;12.85;;;4.50;;
46675;SDS011;32412;51.478;5.694;2022-08-21T07:48:50;12.88;;;4.35;;
46675;SDS011;32412;51.478;5.694;2022-08-21T07:51:16;11.70;;;3.72;;
46675;SDS011;32412;51.478;5.694;2022-08-21T07:53:50;11.82;;;4.10;;
46675;SDS011;32412;51.478;5.694;2022-08-21T07:56:17;12.45;;;3.38;;
46675;SDS011;32412;51.478;5.694;2022-08-21T07:58:43;11.50;;;3.58;;
46675;SDS011;32412;51.478;5.694;2022-08-21T08:01:09;10.80;;;3.00;;
46675;SDS011;32412;51.478;5.694;2022-08-21T08:03:35;9.70;;;4.00;;
46675;SDS011;32412;51.478;5.694;2022-08-21T08:06:01;15.48;;;3.47;;
46675;SDS011;32412;51.478;5.694;2022-08-21T08:08:29;10.50;;;3.08;;
46675;SDS011;32412;51.478;5.694;2022-08-21T08:10:56;12.98;;;3.85;;
46675;SDS011;32412;51.478;5.694;2022-08-21T08:13:22;8.63;;;3.00;;
46675;SDS011;32412;51.478;5.694;2022-08-21T08:15:48;14.65;;;3.72;;
46675;SDS011;32412;51.478;5.694;2022-08-21T08:18:14;9.90;;;3.40;;
46675;SDS011;32412;51.478;5.694;2022-08-21T08:20:39;10.88;;;3.20;;
46675;SDS011;32412;51.478;5.694;2022-08-21T08:23:06;11.52;;;3.30;;
46675;SDS011;32412;51.478;5.694;2022-08-21T08:25:32;17.67;;;4.68;;
46675;SDS011;32412;51.478;5.694;2022-08-21T08:27:57;12.15;;;2.97;;
46675;SDS011;32412;51.478;5.694;2022-08-21T08:30:23;9.10;;;2.45;;
46675;SDS011;32412;51.478;5.694;2022-08-21T08:32:49;9.38;;;2.80;;
46675;SDS011;32412;51.478;5.694;2022-08-21T08:35:15;10.57;;;2.47;;
46675;SDS011;32412;51.478;5.694;2022-08-21T08:37:41;10.98;;;2.63;;
46675;SDS011;32412;51.478;5.694;2022-08-21T08:40:12;10.68;;;3.00;;
46675;SDS011;32412;51.478;5.694;2022-08-21T08:42:43;10.77;;;2.40;;
46675;SDS011;32412;51.478;5.694;2022-08-21T08:45:15;10.70;;;2.50;;
46675;SDS011;32412;51.478;5.694;2022-08-21T08:47:45;10.85;;;2.70;;
46675;SDS011;32412;51.478;5.694;2022-08-21T08:50:25;8.93;;;2.63;;
46675;SDS011;32412;51.478;5.694;2022-08-21T08:53:06;11.38;;;2.53;;
46675;SDS011;32412;51.478;5.694;2022-08-21T08:55:41;14.73;;;2.40;;
46675;SDS011;32412;51.478;5.694;2022-08-21T08:58:16;10.32;;;2.60;;
46675;SDS011;32412;51.478;5.694;2022-08-21T09:00:50;11.80;;;3.10;;
46675;SDS011;32412;51.478;5.694;2022-08-21T09:03:17;8.98;;;2.55;;
46675;SDS011;32412;51.478;5.694;2022-08-21T09:05:53;12.38;;;2.10;;
46675;SDS011;32412;51.478;5.694;2022-08-21T09:08:32;7.60;;;2.17;;
46675;SDS011;32412;51.478;5.694;2022-08-21T09:27:26;7.95;;;1.80;;
46675;SDS011;32412;51.478;5.694;2022-08-21T09:29:53;5.38;;;1.85;;
46675;SDS011;32412;51.478;5.694;2022-08-21T09:32:21;10.00;;;2.17;;
46675;SDS011;32412;51.478;5.694;2022-08-21T09:37:34;9.77;;;2.15;;
46675;SDS011;32412;51.478;5.694;2022-08-21T09:40:56;7.80;;;1.80;;
46675;SDS011;32412;51.478;5.694;2022-08-21T09:43:20;7.45;;;1.40;;
46675;SDS011;32412;51.478;5.694;2022-08-21T09:45:48;4.78;;;1.40;;
46675;SDS011;32412;51.478;5.694;2022-08-21T09:48:25;7.60;;;1.98;;
46675;SDS011;32412;51.478;5.694;2022-08-21T09:50:51;6.65;;;1.58;;
46675;SDS011;32412;51.478;5.694;2022-08-21T09:53:26;5.43;;;1.50;;
46675;SDS011;32412;51.478;5.694;2022-08-21T09:56:00;8.18;;;1.88;;
46675;SDS011;32412;51.478;5.694;2022-08-21T09:58:48;6.00;;;1.67;;
46675;SDS011;32412;51.478;5.694;2022-08-21T10:01:20;6.40;;;1.73;;
46675;SDS011;32412;51.478;5.694;2022-08-21T10:03:48;6.82;;;1.70;;
46675;SDS011;32412;51.478;5.694;2022-08-21T10:06:26;4.28;;;1.58;;
46675;SDS011;32412;51.478;5.694;2022-08-21T10:09:06;4.18;;;1.50;;
46675;SDS011;32412;51.478;5.694;2022-08-21T10:11:35;5.32;;;2.00;;
46675;SDS011;32412;51.478;5.694;2022-08-21T10:14:05;5.90;;;1.52;;
46675;SDS011;32412;51.478;5.694;2022-08-21T10:16:59;7.70;;;1.60;;
46675;SDS011;32412;51.478;5.694;2022-08-21T10:22:15;6.60;;;1.60;;
46675;SDS011;32412;51.478;5.694;2022-08-21T10:25:18;8.75;;;1.88;;
46675;SDS011;32412;51.478;5.694;2022-08-21T10:28:04;6.25;;;1.67;;
46675;SDS011;32412;51.478;5.694;2022-08-21T10:30:50;7.40;;;2.05;;
46675;SDS011;32412;51.478;5.694;2022-08-21T10:33:33;4.00;;;1.55;;
46675;SDS011;32412;51.478;5.694;2022-08-21T10:38:56;6.63;;;1.42;;
46675;SDS011;32412;51.478;5.694;2022-08-21T10:44:23;5.43;;;1.20;;
46675;SDS011;32412;51.478;5.694;2022-08-21T10:47:27;6.60;;;1.77;;
46675;SDS011;32412;51.478;5.694;2022-08-21T10:50:12;6.97;;;1.90;;
46675;SDS011;32412;51.478;5.694;2022-08-21T10:55:41;7.65;;;1.60;;
46675;SDS011;32412;51.478;5.694;2022-08-21T11:03:16;4.38;;;1.80;;
46675;SDS011;32412;51.478;5.694;2022-08-21T11:06:06;3.47;;;1.40;;
46675;SDS011;32412;51.478;5.694;2022-08-21T11:08:40;4.15;;;1.25;;
46675;SDS011;32412;51.478;5.694;2022-08-21T11:11:10;5.10;;;1.42;;
46675;SDS011;32412;51.478;5.694;2022-08-21T11:13:50;6.15;;;1.60;;
46675;SDS011;32412;51.478;5.694;2022-08-21T11:19:02;3.13;;;1.53;;
46675;SDS011;32412;51.478;5.694;2022-08-21T11:21:37;3.13;;;1.70;;
46675;SDS011;32412;51.478;5.694;2022-08-21T11:24:15;5.47;;;1.70;;
46675;SDS011;32412;51.478;5.694;2022-08-21T11:26:58;4.65;;;1.20;;
46675;SDS011;32412;51.478;5.694;2022-08-21T11:32:20;4.57;;;1.55;;
46675;SDS011;32412;51.478;5.694;2022-08-21T11:40:30;9.45;;;1.73;;
46675;SDS011;32412;51.478;5.694;2022-08-21T11:43:40;5.13;;;2.42;;
46675;SDS011;32412;51.478;5.694;2022-08-21T11:49:08;4.82;;;2.05;;
46675;SDS011;32412;51.478;5.694;2022-08-21T11:52:28;7.05;;;2.20;;
46675;SDS011;32412;51.478;5.694;2022-08-21T11:57:28;7.40;;;1.65;;
46675;SDS011;32412;51.478;5.694;2022-08-21T12:00:20;4.60;;;1.40;;
46675;SDS011;32412;51.478;5.694;2022-08-21T12:02:55;7.28;;;1.70;;
46675;SDS011;32412;51.478;5.694;2022-08-21T12:05:34;6.45;;;1.58;;
46675;SDS011;32412;51.478;5.694;2022-08-21T12:08:11;5.38;;;1.92;;
46675;SDS011;32412;51.478;5.694;2022-08-21T12:10:40;5.68;;;1.42;;
46675;SDS011;32412;51.478;5.694;2022-08-21T12:13:28;4.72;;;1.42;;
46675;SDS011;32412;51.478;5.694;2022-08-21T12:16:06;6.80;;;1.80;;
46675;SDS011;32412;51.478;5.694;2022-08-21T12:18:37;6.93;;;1.50;;
46675;SDS011;32412;51.478;5.694;2022-08-21T12:21:25;4.18;;;1.83;;
46675;SDS011;32412;51.478;5.694;2022-08-21T12:24:01;3.88;;;2.42;;
46675;SDS011;32412;51.478;5.694;2022-08-21T12:26:52;6.10;;;2.25;;
46675;SDS011;32412;51.478;5.694;2022-08-21T12:29:29;5.07;;;1.80;;
46675;SDS011;32412;51.478;5.694;2022-08-21T12:34:44;3.75;;;1.73;;
46675;SDS011;32412;51.478;5.694;2022-08-21T12:39:43;4.18;;;1.70;;
46675;SDS011;32412;51.478;5.694;2022-08-21T12:42:20;4.53;;;1.67;;
46675;SDS011;32412;51.478;5.694;2022-08-21T12:44:56;6.40;;;1.85;;
46675;SDS011;32412;51.478;5.694;2022-08-21T12:47:29;3.92;;;1.73;;
46675;SDS011;32412;51.478;5.694;2022-08-21T12:50:21;5.18;;;2.08;;
46675;SDS011;32412;51.478;5.694;2022-08-21T12:53:16;5.03;;;1.98;;
46675;SDS011;32412;51.478;5.694;2022-08-21T12:55:45;5.75;;;2.53;;
46675;SDS011;32412;51.478;5.694;2022-08-21T12:58:21;6.57;;;1.83;;
46675;SDS011;32412;51.478;5.694;2022-08-21T13:00:53;5.30;;;1.60;;
46675;SDS011;32412;51.478;5.694;2022-08-21T13:03:22;4.03;;;1.67;;
46675;SDS011;32412;51.478;5.694;2022-08-21T13:05:48;6.40;;;1.85;;
46675;SDS011;32412;51.478;5.694;2022-08-21T13:08:17;3.40;;;1.65;;
46675;SDS011;32412;51.478;5.694;2022-08-21T13:10:47;6.53;;;1.73;;
46675;SDS011;32412;51.478;5.694;2022-08-21T13:13:18;4.15;;;2.20;;
46675;SDS011;32412;51.478;5.694;2022-08-21T13:15:46;5.35;;;1.73;;
46675;SDS011;32412;51.478;5.694;2022-08-21T13:18:20;6.75;;;1.90;;
46675;SDS011;32412;51.478;5.694;2022-08-21T13:20:50;4.85;;;2.33;;
46675;SDS011;32412;51.478;5.694;2022-08-21T13:25:52;8.52;;;2.22;;
46675;SDS011;32412;51.478;5.694;2022-08-21T13:28:19;6.18;;;1.85;;
46675;SDS011;32412;51.478;5.694;2022-08-21T13:33:14;7.75;;;2.35;;
46675;SDS011;32412;51.478;5.694;2022-08-21T13:38:12;6.78;;;1.77;;
46675;SDS011;32412;51.478;5.694;2022-08-21T13:43:18;5.57;;;2.15;;
46675;SDS011;32412;51.478;5.694;2022-08-21T13:45:48;3.60;;;1.83;;
46675;SDS011;32412;51.478;5.694;2022-08-21T13:48:16;3.90;;;1.73;;
46675;SDS011;32412;51.478;5.694;2022-08-21T13:50:45;7.50;;;2.17;;
46675;SDS011;32412;51.478;5.694;2022-08-21T13:53:27;6.60;;;2.28;;
46675;SDS011;32412;51.478;5.694;2022-08-21T13:55:56;4.72;;;1.70;;
46675;SDS011;32412;51.478;5.694;2022-08-21T13:58:24;6.40;;;2.00;;
46675;SDS011;32412;51.478;5.694;2022-08-21T14:01:21;4.38;;;1.98;;
46675;SDS011;32412;51.478;5.694;2022-08-21T14:03:54;7.20;;;2.20;;
46675;SDS011;32412;51.478;5.694;2022-08-21T14:06:26;5.65;;;1.92;;
46675;SDS011;32412;51.478;5.694;2022-08-21T14:08:55;7.45;;;2.15;;
46675;SDS011;32412;51.478;5.694;2022-08-21T14:11:26;7.63;;;2.05;;
46675;SDS011;32412;51.478;5.694;2022-08-21T14:13:58;7.63;;;2.47;;
46675;SDS011;32412;51.478;5.694;2022-08-21T14:16:39;7.03;;;2.40;;
46675;SDS011;32412;51.478;5.694;2022-08-21T14:21:41;7.95;;;2.03;;
46675;SDS011;32412;51.478;5.694;2022-08-21T14:24:25;8.95;;;2.47;;
46675;SDS011;32412;51.478;5.694;2022-08-21T14:26:54;6.60;;;2.10;;
46675;SDS011;32412;51.478;5.694;2022-08-21T14:29:21;9.23;;;2.10;;
46675;SDS011;32412;51.478;5.694;2022-08-21T14:31:51;9.60;;;2.92;;
46675;SDS011;32412;51.478;5.694;2022-08-21T14:34:19;5.07;;;2.33;;
46675;SDS011;32412;51.478;5.694;2022-08-21T14:36:46;5.38;;;2.28;;
46675;SDS011;32412;51.478;5.694;2022-08-21T14:39:13;6.95;;;2.10;;
46675;SDS011;32412;51.478;5.694;2022-08-21T14:41:38;6.88;;;2.20;;
46675;SDS011;32412;51.478;5.694;2022-08-21T14:44:04;8.32;;;2.33;;
46675;SDS011;32412;51.478;5.694;2022-08-21T14:46:32;5.53;;;2.28;;
46675;SDS011;32412;51.478;5.694;2022-08-21T14:49:00;9.27;;;3.33;;
46675;SDS011;32412;51.478;5.694;2022-08-21T14:51:27;5.35;;;2.97;;
46675;SDS011;32412;51.478;5.694;2022-08-21T14:53:53;9.18;;;2.40;;
46675;SDS011;32412;51.478;5.694;2022-08-21T14:56:18;6.85;;;2.38;;
46675;SDS011;32412;51.478;5.694;2022-08-21T14:58:45;7.05;;;2.10;;
46675;SDS011;32412;51.478;5.694;2022-08-21T15:01:14;7.57;;;2.50;;
46675;SDS011;32412;51.478;5.694;2022-08-21T15:03:42;5.18;;;2.58;;
46675;SDS011;32412;51.478;5.694;2022-08-21T15:06:08;11.70;;;5.15;;
46675;SDS011;32412;51.478;5.694;2022-08-21T15:08:34;8.93;;;3.90;;
46675;SDS011;32412;51.478;5.694;2022-08-21T15:11:00;9.93;;;2.92;;
46675;SDS011;32412;51.478;5.694;2022-08-21T15:13:27;15.82;;;9.52;;
46675;SDS011;32412;51.478;5.694;2022-08-21T15:15:53;10.52;;;2.90;;
46675;SDS011;32412;51.478;5.694;2022-08-21T15:18:21;6.88;;;2.95;;
46675;SDS011;32412;51.478;5.694;2022-08-21T15:20:48;7.03;;;2.67;;
46675;SDS011;32412;51.478;5.694;2022-08-21T15:23:14;12.65;;;3.33;;
46675;SDS011;32412;51.478;5.694;2022-08-21T15:25:41;7.43;;;3.45;;
46675;SDS011;32412;51.478;5.694;2022-08-21T15:28:08;6.82;;;2.83;;
46675;SDS011;32412;51.478;5.694;2022-08-21T15:30:35;6.75;;;3.17;;
46675;SDS011;32412;51.478;5.694;2022-08-21T15:33:02;7.53;;;3.63;;
46675;SDS011;32412;51.478;5.694;2022-08-21T15:35:29;11.30;;;3.85;;
46675;SDS011;32412;51.478;5.694;2022-08-21T15:37:54;7.40;;;3.50;;
46675;SDS011;32412;51.478;5.694;2022-08-21T15:40:20;9.15;;;2.88;;
46675;SDS011;32412;51.478;5.694;2022-08-21T15:42:45;9.05;;;2.67;;
46675;SDS011;32412;51.478;5.694;2022-08-21T15:45:11;8.40;;;2.78;;
46675;SDS011;32412;51.478;5.694;2022-08-21T15:47:38;7.97;;;2.72;;
46675;SDS011;32412;51.478;5.694;2022-08-21T15:50:07;7.30;;;3.28;;
46675;SDS011;32412;51.478;5.694;2022-08-21T15:52:34;8.43;;;2.72;;
46675;SDS011;32412;51.478;5.694;2022-08-21T15:55:00;9.95;;;3.15;;
46675;SDS011;32412;51.478;5.694;2022-08-21T15:57:25;7.80;;;3.15;;
46675;SDS011;32412;51.478;5.694;2022-08-21T16:00:03;10.27;;;2.75;;
46675;SDS011;32412;51.478;5.694;2022-08-21T16:02:36;6.38;;;2.50;;